createdAt,value
2018-06-08T00:01:01.903Z,17.80
2018-06-08T00:03:30.759Z,17.90
2018-06-08T00:06:00.020Z,18.00
2018-06-08T00:08:29.082Z,17.90
2018-06-08T00:10:57.982Z,17.80
2018-06-08T00:13:27.131Z,17.70
2018-06-08T00:15:56.116Z,17.60
2018-06-08T00:18:24.937Z,17.60
2018-06-08T00:20:53.917Z,17.60
2018-06-08T00:23:22.849Z,17.60
2018-06-08T00:30:48.670Z,16.60
2018-06-08T00:33:17.720Z,16.60
2018-06-08T00:35:46.628Z,16.70
2018-06-08T00:38:15.520Z,16.70
2018-06-08T00:40:44.459Z,16.90
2018-06-08T00:45:42.904Z,16.90
2018-06-08T00:48:11.733Z,17.00
2018-06-08T00:50:40.787Z,17.10
2018-06-08T00:53:09.667Z,17.20
2018-06-08T00:55:38.517Z,17.20
2018-06-08T01:00:35.753Z,17.30
2018-06-08T01:03:04.622Z,17.30
2018-06-08T01:05:33.552Z,17.30
2018-06-08T01:08:02.457Z,17.30
2018-06-08T01:12:59.695Z,17.40
2018-06-08T01:15:29.407Z,17.30
2018-06-08T01:17:58.300Z,16.40
2018-06-08T01:20:27.227Z,15.70
2018-06-08T01:22:56.109Z,15.80
2018-06-08T01:25:25.073Z,15.50
2018-06-08T01:27:53.990Z,15.50
2018-06-08T01:32:51.518Z,15.90
2018-06-08T01:35:20.445Z,16.10
2018-06-08T01:40:17.905Z,16.30
2018-06-08T01:42:46.813Z,16.40
2018-06-08T01:47:44.098Z,16.50
2018-06-08T01:50:12.964Z,16.50
2018-06-08T01:55:10.270Z,16.40
2018-06-08T01:57:39.120Z,16.40
2018-06-08T02:02:36.570Z,16.40
2018-06-08T02:05:05.573Z,16.30
2018-06-08T02:07:34.477Z,16.30
2018-06-08T02:12:31.872Z,16.30
2018-06-08T02:15:00.763Z,16.20
2018-06-08T02:17:29.597Z,16.20
2018-06-08T02:19:58.575Z,16.20
2018-06-08T02:22:27.412Z,16.10
2018-06-08T02:27:24.889Z,15.50
2018-06-08T02:32:23.675Z,15.70
2018-06-08T02:34:55.476Z,15.80
2018-06-08T02:37:24.411Z,15.70
2018-06-08T02:39:53.316Z,15.40
2018-06-08T02:42:22.138Z,15.50
2018-06-08T02:44:51.002Z,15.60
2018-06-08T02:47:19.868Z,15.80
2018-06-08T02:49:48.707Z,15.80
2018-06-08T02:52:17.616Z,15.90
2018-06-08T02:54:46.455Z,15.90
2018-06-08T02:59:43.727Z,16.00
2018-06-08T03:04:40.997Z,15.80
2018-06-08T03:09:38.268Z,15.00
2018-06-08T03:12:07.129Z,14.90
2018-06-08T03:14:35.960Z,15.10
2018-06-08T03:17:04.856Z,15.00
2018-06-08T03:19:33.716Z,15.00
2018-06-08T03:24:31.071Z,14.90
2018-06-08T03:26:59.932Z,14.80
2018-06-08T03:29:28.775Z,14.60
2018-06-08T03:31:57.661Z,14.50
2018-06-08T03:34:26.532Z,14.40
2018-06-08T03:36:55.371Z,14.70
2018-06-08T03:39:24.219Z,14.80
2018-06-08T03:44:21.527Z,15.10
2018-06-08T03:46:50.391Z,15.20
2018-06-08T03:49:19.265Z,15.30
2018-06-08T03:54:16.555Z,14.60
2018-06-08T03:56:48.495Z,14.40
2018-06-08T03:59:18.599Z,14.40
2018-06-08T04:01:47.552Z,14.60
2018-06-08T04:04:16.456Z,14.60
2018-06-08T04:06:45.370Z,14.40
2018-06-08T04:09:14.459Z,14.50
2018-06-08T04:11:43.350Z,14.60
2018-06-08T04:14:12.374Z,14.70
2018-06-08T04:19:10.817Z,14.20
2018-06-08T04:21:40.055Z,14.20
2018-06-08T04:31:34.346Z,14.50
2018-06-08T04:34:03.230Z,14.40
2018-06-08T04:36:32.060Z,14.40
2018-06-08T04:39:00.899Z,14.60
2018-06-08T04:41:29.797Z,14.70
2018-06-08T04:43:58.629Z,14.80
2018-06-08T04:46:27.621Z,14.90
2018-06-08T04:48:56.552Z,14.90
2018-06-08T04:51:25.419Z,14.90
2018-06-08T04:53:54.368Z,15.00
2018-06-08T04:56:23.266Z,15.10
2018-06-08T04:58:52.443Z,15.10
2018-06-08T05:01:21.501Z,15.30
2018-06-08T05:06:19.438Z,15.50
2018-06-08T05:08:48.448Z,15.60
2018-06-08T05:13:47.248Z,15.60
2018-06-08T05:16:17.264Z,15.70
2018-06-08T05:18:47.301Z,15.70
2018-06-08T05:21:17.629Z,15.70
2018-06-08T05:23:47.484Z,15.60
2018-06-08T05:26:17.462Z,15.50
2018-06-08T05:28:46.665Z,15.50
2018-06-08T05:31:16.561Z,15.60
2018-06-08T05:33:46.694Z,15.70
2018-06-08T05:36:17.109Z,15.70
2018-06-08T05:38:47.095Z,15.70
2018-06-08T05:41:16.630Z,15.70
2018-06-08T05:43:47.138Z,15.80
2018-06-08T05:46:17.049Z,15.90
2018-06-08T05:48:47.023Z,16.00
2018-06-08T05:51:16.650Z,16.10
2018-06-08T05:53:45.810Z,16.30
2018-06-08T05:56:14.885Z,16.50
2018-06-08T06:01:12.252Z,16.60
2018-06-08T06:03:41.153Z,16.70
2018-06-08T06:06:10.003Z,16.80
2018-06-08T06:08:38.888Z,16.90
2018-06-08T06:11:07.761Z,17.00
2018-06-08T06:13:36.650Z,17.00
2018-06-08T06:16:05.617Z,17.00
2018-06-08T06:18:34.766Z,17.10
2018-06-08T06:21:03.794Z,17.20
2018-06-08T06:23:32.665Z,17.30
2018-06-08T06:26:01.569Z,17.40
2018-06-08T06:28:30.443Z,17.40
2018-06-08T06:33:28.071Z,17.70
2018-06-08T06:35:57.626Z,17.80
2018-06-08T06:38:27.190Z,17.80
2018-06-08T06:43:27.411Z,18.00
2018-06-08T06:48:26.975Z,18.10
2018-06-08T06:50:57.242Z,18.20
2018-06-08T06:53:28.146Z,18.20
2018-06-08T06:56:00.150Z,18.30
2018-06-08T06:58:29.447Z,18.30
2018-06-08T07:00:59.248Z,18.30
2018-06-08T07:03:29.270Z,18.30
2018-06-08T07:05:58.419Z,18.40
2018-06-08T07:08:27.674Z,18.50
2018-06-08T07:10:56.675Z,18.60
2018-06-08T07:13:25.609Z,18.70
2018-06-08T07:18:23.049Z,18.90
2018-06-08T07:20:51.945Z,18.90
2018-06-08T07:23:20.857Z,19.00
2018-06-08T07:25:49.830Z,19.10
2018-06-08T07:28:18.690Z,19.20
2018-06-08T07:30:47.621Z,19.30
2018-06-08T07:33:16.608Z,19.40
2018-06-08T07:35:45.585Z,19.50
2018-06-08T07:38:14.463Z,19.60
2018-06-08T07:40:43.505Z,19.70
2018-06-08T07:45:40.885Z,19.80
2018-06-08T07:50:38.329Z,20.00
2018-06-08T07:53:07.554Z,20.00
2018-06-08T07:55:36.620Z,20.00
2018-06-08T07:58:05.937Z,20.10
2018-06-08T08:03:03.301Z,20.30
2018-06-08T08:05:32.314Z,20.40
2018-06-08T08:08:01.165Z,20.40
2018-06-08T08:10:30.084Z,20.50
2018-06-08T08:12:59.028Z,20.60
2018-06-08T08:15:27.862Z,20.60
2018-06-08T08:17:56.739Z,20.50
2018-06-08T08:20:25.660Z,20.60
2018-06-08T08:22:54.613Z,20.70
2018-06-08T08:25:24.225Z,20.80
2018-06-08T08:27:53.107Z,21.00
2018-06-08T08:30:22.030Z,21.00
2018-06-08T08:35:19.574Z,21.20
2018-06-08T08:37:48.497Z,21.30
2018-06-08T08:40:17.574Z,21.40
2018-06-08T08:45:15.135Z,21.50
2018-06-08T08:47:44.021Z,21.60
2018-06-08T08:50:12.929Z,21.50
2018-06-08T08:55:10.906Z,21.60
2018-06-08T08:57:39.786Z,21.60
2018-06-08T09:00:08.790Z,21.70
2018-06-08T09:02:38.452Z,21.80
2018-06-08T09:05:07.375Z,21.70
2018-06-08T09:07:36.342Z,21.80
2018-06-08T09:10:05.457Z,21.60
2018-06-08T09:12:35.292Z,21.50
2018-06-08T09:15:09.291Z,21.70
2018-06-08T09:17:53.851Z,21.70
2018-06-08T09:20:23.949Z,21.90
2018-06-08T09:25:32.139Z,22.10
2018-06-08T09:28:03.144Z,22.20
2018-06-08T09:33:07.459Z,22.50
2018-06-08T09:35:38.560Z,22.50
2018-06-08T09:38:08.455Z,22.60
2018-06-08T09:40:42.849Z,22.80
2018-06-08T09:43:14.802Z,22.80
2018-06-08T09:45:46.885Z,22.90
2018-06-08T09:48:17.422Z,23.00
2018-06-08T09:50:47.520Z,23.10
2018-06-08T09:55:45.392Z,23.20
2018-06-08T09:58:14.334Z,23.20
2018-06-08T10:00:44.274Z,23.40
2018-06-08T10:03:13.302Z,23.40
2018-06-08T10:10:39.268Z,23.70
2018-06-08T10:13:08.295Z,23.70
2018-06-08T10:15:37.466Z,23.80
2018-06-08T10:18:06.586Z,23.50
2018-06-08T10:20:36.506Z,23.70
2018-06-08T10:25:34.958Z,23.60
2018-06-08T10:30:33.671Z,23.70
2018-06-08T10:33:03.886Z,23.80
2018-06-08T10:35:32.800Z,23.50
2018-06-08T10:38:01.768Z,23.00
2018-06-08T10:40:31.752Z,23.30
2018-06-08T10:43:01.756Z,23.40
2018-06-08T10:45:30.769Z,23.30
2018-06-08T10:48:00.854Z,23.40
2018-06-08T10:52:59.407Z,23.70
2018-06-08T10:55:28.606Z,23.60
2018-06-08T10:57:58.543Z,23.60
2018-06-08T11:00:27.653Z,23.50
2018-06-08T11:02:57.019Z,23.60
2018-06-08T11:05:26.081Z,23.60
2018-06-08T11:07:55.104Z,23.20
2018-06-08T11:10:24.060Z,23.00
2018-06-08T11:12:52.974Z,23.10
2018-06-08T11:17:50.463Z,23.30
2018-06-08T11:20:19.356Z,23.10
2018-06-08T11:22:48.331Z,23.10
2018-06-08T11:25:17.239Z,23.20
2018-06-08T11:27:46.129Z,23.20
2018-06-08T11:30:15.060Z,23.40
2018-06-08T11:32:43.917Z,23.40
2018-06-08T11:35:12.800Z,23.40
2018-06-08T11:37:41.774Z,23.20
2018-06-08T11:42:39.169Z,23.30
2018-06-08T11:45:08.061Z,23.40
2018-06-08T11:47:37.057Z,23.50
2018-06-08T11:50:05.966Z,23.60
2018-06-08T11:52:34.873Z,23.80
2018-06-08T11:55:03.733Z,23.80
2018-06-08T11:57:32.593Z,23.90
2018-06-08T12:02:30.033Z,24.10
2018-06-08T12:04:58.949Z,24.10
2018-06-08T12:09:56.289Z,24.20
2018-06-08T12:12:25.251Z,24.20
2018-06-08T12:14:54.116Z,24.10
2018-06-08T12:17:23.060Z,24.20
2018-06-08T12:19:52.022Z,24.40
2018-06-08T12:22:20.880Z,24.60
2018-06-08T12:24:49.777Z,24.60
2018-06-08T12:27:19.005Z,24.70
2018-06-08T12:29:47.897Z,24.80
2018-06-08T12:32:16.788Z,24.60
2018-06-08T12:34:45.685Z,24.70
2018-06-08T12:37:14.820Z,24.50
2018-06-08T12:42:12.341Z,24.60
2018-06-08T12:44:41.228Z,24.40
2018-06-08T12:47:10.495Z,24.50
2018-06-08T12:49:39.821Z,24.80
2018-06-08T12:52:11.270Z,24.80
2018-06-08T12:54:40.525Z,25.10
2018-06-08T12:59:39.316Z,25.30
2018-06-08T13:02:08.542Z,25.40
2018-06-08T13:07:08.701Z,25.70
2018-06-08T13:09:37.607Z,25.80
2018-06-08T13:12:06.805Z,25.80
2018-06-08T13:14:35.652Z,25.90
2018-06-08T13:19:33.142Z,26.20
2018-06-08T13:22:01.980Z,26.30
2018-06-08T13:24:30.872Z,26.20
2018-06-08T13:26:59.776Z,26.10
2018-06-08T13:29:28.757Z,26.20
2018-06-08T13:31:57.658Z,26.30
2018-06-08T13:36:54.955Z,26.50
2018-06-08T13:39:23.975Z,26.40
2018-06-08T13:41:52.896Z,26.40
2018-06-08T13:44:21.804Z,26.50
2018-06-08T13:46:50.837Z,26.50
2018-06-08T13:49:19.776Z,26.40
2018-06-08T13:51:48.674Z,26.50
2018-06-08T13:54:17.561Z,26.60
2018-06-08T13:56:46.444Z,26.50
2018-06-08T13:59:15.333Z,26.50
2018-06-08T14:01:44.160Z,26.60
2018-06-08T14:04:13.036Z,26.70
2018-06-08T14:06:41.920Z,26.90
2018-06-08T14:09:10.863Z,26.80
2018-06-08T14:11:39.761Z,27.10
2018-06-08T14:14:08.630Z,27.30
2018-06-08T14:16:38.577Z,27.60
2018-06-08T14:19:07.493Z,27.60
2018-06-08T14:21:36.435Z,27.70
2018-06-08T14:24:05.330Z,27.70
2018-06-08T14:26:35.844Z,27.70
2018-06-08T14:29:05.889Z,27.70
2018-06-08T14:31:34.850Z,27.80
2018-06-08T14:34:03.906Z,28.00
2018-06-08T14:39:01.329Z,28.10
2018-06-08T14:41:30.215Z,28.10
2018-06-08T14:43:59.089Z,28.20
2018-06-08T14:46:27.993Z,28.30
2018-06-08T14:48:56.876Z,28.30
2018-06-08T14:51:25.745Z,28.30
2018-06-08T14:53:54.606Z,28.10
2018-06-08T14:56:25.341Z,28.10
2018-06-08T14:58:54.486Z,28.20
2018-06-08T15:01:23.310Z,28.40
2018-06-08T15:03:52.464Z,28.50
2018-06-08T15:06:21.318Z,28.60
2018-06-08T15:08:50.163Z,28.60
2018-06-08T15:11:19.089Z,28.60
2018-06-08T15:13:48.271Z,28.60
2018-06-08T15:16:17.113Z,28.60
2018-06-08T15:18:45.975Z,28.60
2018-06-08T15:23:43.370Z,28.40
2018-06-08T15:26:12.214Z,28.50
2018-06-08T15:28:41.106Z,28.40
2018-06-08T15:31:09.985Z,28.40
2018-06-08T15:33:38.867Z,28.50
2018-06-08T15:36:07.793Z,28.60
2018-06-08T15:41:05.232Z,28.70
2018-06-08T15:43:34.122Z,28.80
2018-06-08T15:46:03.084Z,28.70
2018-06-08T15:48:32.114Z,28.60
2018-06-08T15:51:00.989Z,28.30
2018-06-08T15:53:29.943Z,28.20
2018-06-08T16:03:24.437Z,27.50
2018-06-08T16:05:53.316Z,27.60
2018-06-08T16:08:22.169Z,27.60
2018-06-08T16:10:51.052Z,27.30
2018-06-08T16:13:19.963Z,27.50
2018-06-08T16:15:48.941Z,27.60
2018-06-08T16:18:17.849Z,27.60
2018-06-08T16:20:46.708Z,27.50
2018-06-08T16:23:15.628Z,27.50
2018-06-08T16:25:44.540Z,27.50
2018-06-08T16:28:13.393Z,27.40
2018-06-08T16:30:42.282Z,27.30
2018-06-08T16:33:11.161Z,27.20
2018-06-08T16:35:40.169Z,27.20
2018-06-08T16:38:09.218Z,27.10
2018-06-08T16:43:06.697Z,27.00
2018-06-08T16:48:04.250Z,26.90
2018-06-08T16:50:33.191Z,26.90
2018-06-08T16:53:02.229Z,26.80
2018-06-08T16:55:31.178Z,26.80
2018-06-08T16:58:00.127Z,26.80
2018-06-08T17:02:59.136Z,26.90
2018-06-08T17:05:28.388Z,26.90
2018-06-08T17:07:59.346Z,26.80
2018-06-08T17:10:29.369Z,26.70
2018-06-08T17:12:58.325Z,26.60
2018-06-08T17:15:29.011Z,26.50
2018-06-08T17:17:58.156Z,26.40
2018-06-08T17:20:27.529Z,26.30
2018-06-08T17:22:56.628Z,26.20
2018-06-08T17:25:25.951Z,26.20
2018-06-08T17:27:54.892Z,26.10
2018-06-08T17:30:23.795Z,26.10
2018-06-08T17:35:22.143Z,26.00
2018-06-08T17:37:50.981Z,25.90
2018-06-08T17:45:16.916Z,25.80
2018-06-08T17:47:45.868Z,25.70
2018-06-08T17:50:15.755Z,25.70
2018-06-08T17:52:44.658Z,25.60
2018-06-08T17:55:13.630Z,25.60
2018-06-08T17:57:42.535Z,25.50
2018-06-08T18:00:12.324Z,25.40
2018-06-08T18:05:09.659Z,25.40
2018-06-08T18:07:38.593Z,25.30
2018-06-08T18:12:36.313Z,25.20
2018-06-08T18:15:05.387Z,25.10
2018-06-08T18:17:35.396Z,25.10
2018-06-08T18:20:04.626Z,25.00
2018-06-08T18:22:33.532Z,24.90
2018-06-08T18:25:02.402Z,24.80
2018-06-08T18:27:31.445Z,24.80
2018-06-08T18:30:00.586Z,24.70
2018-06-08T18:32:29.598Z,24.60
2018-06-08T18:34:58.571Z,24.60
2018-06-08T18:37:27.398Z,24.50
2018-06-08T18:39:56.364Z,24.40
2018-06-08T18:42:25.209Z,24.40
2018-06-08T18:44:54.077Z,24.30
2018-06-08T18:49:53.272Z,24.20
2018-06-08T18:52:22.210Z,24.10
2018-06-08T18:54:51.189Z,23.90
2018-06-08T18:57:20.109Z,23.90
2018-06-08T18:59:48.997Z,23.80
2018-06-08T19:02:17.950Z,23.70
2018-06-08T19:04:46.794Z,23.60
2018-06-08T19:07:15.711Z,23.60
2018-06-08T19:14:41.533Z,23.40
2018-06-08T19:17:10.414Z,23.50
2018-06-08T19:19:40.095Z,23.40
2018-06-08T19:22:09.513Z,23.30
2018-06-08T19:24:38.493Z,23.30
2018-06-08T19:27:08.469Z,23.20
2018-06-08T19:29:37.958Z,23.20
2018-06-08T19:32:06.826Z,23.00
2018-06-08T19:34:35.693Z,23.00
2018-06-08T19:37:04.669Z,23.00
2018-06-08T19:39:33.521Z,23.10
2018-06-08T19:42:02.402Z,23.00
2018-06-08T19:44:31.236Z,23.10
2018-06-08T19:47:00.198Z,23.00
2018-06-08T19:49:29.805Z,23.00
2018-06-08T19:51:58.713Z,23.00
2018-06-08T19:54:27.646Z,22.90
2018-06-08T19:56:56.511Z,23.00
2018-06-08T19:59:32.106Z,22.80
2018-06-08T20:02:01.015Z,22.90
2018-06-08T20:04:29.844Z,22.80
2018-06-08T20:06:58.774Z,22.70
2018-06-08T20:09:27.676Z,22.80
2018-06-08T20:11:56.692Z,22.70
2018-06-08T20:16:54.128Z,22.50
2018-06-08T20:19:22.994Z,22.40
2018-06-08T20:21:51.856Z,22.40
2018-06-08T20:24:20.816Z,22.30
2018-06-08T20:26:49.671Z,22.30
2018-06-08T20:29:18.607Z,22.30
2018-06-08T20:31:47.476Z,22.30
2018-06-08T20:34:16.410Z,22.20
2018-06-08T20:36:45.265Z,22.20
2018-06-08T20:39:14.122Z,22.10
2018-06-08T20:41:42.923Z,22.00
2018-06-08T20:44:11.747Z,22.00
2018-06-08T20:49:08.920Z,22.00
2018-06-08T20:51:37.757Z,22.00
2018-06-08T20:54:06.968Z,22.00
2018-06-08T20:56:35.828Z,22.00
2018-06-08T20:59:04.696Z,21.90
2018-06-08T21:01:33.538Z,21.70
2018-06-08T21:04:02.415Z,21.70
2018-06-08T21:06:31.241Z,21.60
2018-06-08T21:11:28.507Z,21.60
2018-06-08T21:13:57.310Z,21.60
2018-06-08T21:16:26.816Z,21.60
2018-06-08T21:18:56.647Z,21.60
2018-06-08T21:21:26.420Z,21.50
2018-06-08T21:23:55.377Z,21.50
2018-06-08T21:26:24.273Z,21.50
2018-06-08T21:28:53.245Z,21.50
2018-06-08T21:31:22.100Z,21.40
2018-06-08T21:33:50.939Z,21.40
2018-06-08T21:36:19.752Z,21.40
2018-06-08T21:38:48.592Z,21.40
2018-06-08T21:41:17.495Z,21.30
2018-06-08T21:43:46.301Z,21.30
2018-06-08T21:46:15.130Z,21.30
2018-06-08T21:51:12.559Z,21.20
2018-06-08T21:53:41.530Z,21.20
2018-06-08T21:56:10.459Z,21.20
2018-06-08T21:58:39.578Z,21.20
2018-06-08T22:01:09.901Z,21.20
2018-06-08T22:06:07.488Z,21.20
2018-06-08T22:08:36.352Z,21.20
2018-06-08T22:13:33.810Z,21.10
2018-06-08T22:16:02.737Z,21.10
2018-06-08T22:18:31.625Z,21.00
2018-06-08T22:21:00.591Z,21.00
2018-06-08T22:23:29.494Z,21.00
2018-06-08T22:28:26.797Z,20.90
2018-06-08T22:30:55.736Z,20.90
2018-06-08T22:33:24.589Z,20.90
2018-06-08T22:35:53.429Z,20.80
2018-06-08T22:40:50.808Z,20.70
2018-06-08T22:45:48.318Z,20.70
2018-06-08T22:48:17.235Z,20.70
2018-06-08T22:50:46.056Z,20.70
2018-06-08T22:55:43.475Z,20.70
2018-06-08T22:58:12.312Z,20.60
2018-06-08T23:03:09.698Z,20.50
2018-06-08T23:05:38.629Z,20.50
2018-06-08T23:08:07.534Z,20.50
2018-06-08T23:10:36.442Z,20.40
2018-06-08T23:13:05.379Z,20.40
2018-06-08T23:15:34.245Z,20.50
2018-06-08T23:20:31.633Z,20.60
2018-06-08T23:23:00.480Z,20.60
2018-06-08T23:25:29.408Z,20.60
2018-06-08T23:27:58.241Z,20.50
2018-06-08T23:30:28.260Z,20.50
2018-06-08T23:32:57.192Z,20.30
2018-06-08T23:35:26.125Z,20.40
2018-06-08T23:37:55.006Z,20.30
2018-06-08T23:40:23.865Z,20.30
2018-06-08T23:42:52.792Z,20.10
2018-06-08T23:45:21.663Z,19.60
2018-06-08T23:47:50.507Z,18.90
2018-06-08T23:50:19.430Z,18.80
2018-06-08T23:52:48.288Z,19.10
2018-06-08T23:55:17.268Z,19.30
2018-06-08T23:57:46.205Z,19.40
